This is the latest recevied weather packets stored in our database for station/object W7DG. If no packets are shown the sender has not sent any weather packets the latest 10 day(s).
| Time | Temp. | Humidity | Pressure | Rain* | Wind** | Luminosity | Snow |
|---|---|---|---|---|---|---|---|
| 1777607650 | 17.78° C | 58% | 1016.2 hPa | 0 mm | - | - | - |
| 1777607290 | 18.33° C | 60% | 1016.2 hPa | 0 mm | - | - | - |
| 1777606751 | 18.33° C | 58% | 1016.3 hPa | 0 mm | - | - | - |
| 1777606390 | 18.89° C | 57% | 1016.3 hPa | 0 mm | - | - | - |
| 1777605851 | 18.89° C | 56% | 1016.2 hPa | 0 mm | - | - | - |
| 1777605490 | 19.44° C | 55% | 1016.2 hPa | 0 mm | - | - | - |
| 1777604951 | 19.44° C | 55% | 1016.2 hPa | 0 mm | - | - | - |
| 1777604590 | 20° C | 53% | 1016.1 hPa | 0 mm | - | - | - |
| 1777555990 | 10° C | 81% | 1020.7 hPa | 0 mm | - | - | - |
| 1777555451 | 10° C | 80% | 1020.6 hPa | 0 mm | - | - | - |
| 1777555090 | 10° C | 80% | 1020.6 hPa | 0 mm | - | - | - |
| 1777554551 | 10° C | 80% | 1020.7 hPa | 0 mm | - | - | - |
| 1777554190 | 10° C | 80% | 1020.7 hPa | 0 mm | - | - | - |
| 1777553651 | 10° C | 81% | 1020.7 hPa | 0 mm | - | - | - |
| 1777553290 | 10° C | 81% | 1020.6 hPa | 0 mm | - | - | - |
| 1777552751 | 10° C | 81% | 1020.6 hPa | 0 mm | - | - | - |
| 1777552390 | 10° C | 81% | 1020.6 hPa | 0 mm | - | - | - |
| 1777551851 | 10° C | 81% | 1020.7 hPa | 0 mm | - | - | - |
| 1777551490 | 10° C | 81% | 1020.7 hPa | 0 mm | - | - | - |
| 1777550951 | 10° C | 81% | 1020.8 hPa | 0 mm | - | - | - |
| 1777550590 | 10° C | 81% | 1021 hPa | 0 mm | - | - | - |
| 1777550051 | 10° C | 81% | 1021 hPa | 0 mm | - | - | - |
| 1777549690 | 10° C | 80% | 1021.1 hPa | 0 mm | - | - | - |
| 1777549151 | 10° C | 80% | 1021.1 hPa | 0 mm | - | - | - |
| 1777548790 | 10° C | 80% | 1021.2 hPa | 0 mm | - | - | - |
* Rain latest hour (hover to see other rain measurements)
** Current wind speed in m/s (hover to see current wind gust speed)